| time (UTC) | temp F | wind direction | speed MPH | gust MPH | rain 1hr in | rain 24hr in | rain mn in | humidity % | barometer mb |
| 20260510002133 | 84 | 134 | 1.0 | 2.0 | 0.00 | 0.00 | 0.00 | 70 | 1007.7 |
| 20260510001129 | 85 | 123 | 1.0 | 2.0 | 0.00 | 0.00 | 0.00 | 69 | 1007.6 |
| 20260510000125 | 85 | 29 | 1.0 | 2.0 | 0.00 | 0.00 | 0.00 | 70 | 1007.6 |
| 20260509235132 | 84 | 28 | 0.0 | 3.0 | 0.00 | 0.00 | 0.00 | 70 | 1007.5 |
| 20260509234125 | 85 | 32 | 1.0 | 4.0 | 0.00 | 0.00 | 0.00 | 68 | 1007.4 |
| 20260509233141 | 85 | 43 | 2.0 | 4.0 | 0.00 | 0.00 | 0.00 | 68 | 1007.2 |
| 20260509232211 | 86 | 144 | 1.0 | 6.0 | 0.00 | 0.00 | 0.00 | 67 | 1007.1 |
| 20260509231139 | 87 | 53 | 2.0 | 5.0 | 0.00 | 0.00 | 0.00 | 65 | 1007.0 |
| 20260509230853 | 87 | 50 | 3.0 | 5.0 | 0.00 | 0.00 | 0.00 | 63 | 1007.0 |
| 20260509224156 | 90 | 257 | 3.0 | 8.0 | 0.00 | 0.00 | 0.00 | 55 | 1007.1 |
| 20260509223140 | 90 | 266 | 4.0 | 8.0 | 0.00 | 0.00 | 0.00 | 55 | 1007.1 |
| 20260509222204 | 90 | 188 | 4.0 | 7.0 | 0.00 | 0.00 | 0.00 | 55 | 1007.0 |
| 20260509221146 | 88 | 157 | 3.0 | 7.0 | 0.00 | 0.00 | 0.00 | 57 | 1007.0 |
| 20260509220136 | 88 | 217 | 1.0 | 7.0 | 0.00 | 0.00 | 0.00 | 58 | 1007.1 |
| 20260509215214 | 88 | 157 | 1.0 | 6.0 | 0.00 | 0.00 | 0.00 | 62 | 1007.1 |
| 20260509214126 | 88 | 157 | 3.0 | 8.0 | 0.00 | 0.00 | 0.00 | 59 | 1007.3 |
| 20260509211149 | 88 | 228 | 1.0 | 7.0 | 0.00 | 0.00 | 0.00 | 59 | 1007.7 |
| 20260509210130 | 89 | 271 | 2.0 | 7.0 | 0.00 | 0.00 | 0.00 | 59 | 1007.7 |
| 20260509205155 | 89 | 259 | 3.0 | 7.0 | 0.00 | 0.00 | 0.00 | 59 | 1007.9 |
| 20260509204219 | 89 | 61 | 3.0 | 6.0 | 0.00 | 0.00 | 0.00 | 60 | 1007.9 |
| 20260509201148 | 88 | 215 | 2.0 | 9.0 | 0.00 | 0.00 | 0.00 | 62 | 1008.3 |
| 20260509200148 | 88 | 215 | 1.0 | 5.0 | 0.00 | 0.00 | 0.00 | 61 | 1008.3 |
| 20260509195223 | 88 | 155 | 1.0 | 9.0 | 0.00 | 0.00 | 0.00 | 61 | 1008.5 |
| 20260509194200 | 87 | 250 | 4.0 | 9.0 | 0.00 | 0.00 | 0.00 | 63 | 1008.6 |
| 20260509193128 | 86 | 225 | 4.0 | 8.0 | 0.00 | 0.00 | 0.00 | 65 | 1008.8 |
| 20260509192208 | 85 | 36 | 2.0 | 8.0 | 0.00 | 0.00 | 0.00 | 66 | 1008.9 |
| 20260509191237 | 87 | 153 | 3.0 | 7.0 | 0.00 | 0.00 | 0.00 | 64 | 1008.9 |
| 20260509190206 | 87 | 167 | 4.0 | 8.0 | 0.00 | 0.00 | 0.00 | 65 | 1009.0 |
| 20260509185144 | 87 | 254 | 1.0 | 7.0 | 0.00 | 0.00 | 0.00 | 64 | 1009.0 |
| 20260509184216 | 86 | 183 | 2.0 | 8.0 | 0.00 | 0.00 | 0.00 | 65 | 1009.1 |
| 20260509182150 | 85 | 248 | 2.0 | 6.0 | 0.00 | 0.00 | 0.00 | 70 | 1009.4 |
| 20260509181127 | 84 | 245 | 3.0 | 6.0 | 0.00 | 0.00 | 0.00 | 69 | 1009.5 |
| 20260509180140 | 84 | 226 | 2.0 | 8.0 | 0.00 | 0.00 | 0.00 | 71 | 1009.6 |
| 20260509175219 | 82 | 163 | 2.0 | 8.0 | 0.00 | 0.00 | 0.00 | 75 | 1009.8 |
| 20260509174140 | 82 | 229 | 4.0 | 11.0 | 0.00 | 0.00 | 0.00 | 76 | 1010.0 |
| 20260509173219 | 81 | 179 | 4.0 | 8.0 | 0.00 | 0.00 | 0.00 | 77 | 1010.0 |
| 20260509172221 | 82 | 172 | 3.0 | 10.0 | 0.00 | 0.00 | 0.00 | 76 | 1010.1 |
| 20260509170830 | 81 | 143 | 4.0 | 9.0 | 0.00 | 0.00 | 0.00 | 77 | 1009.9 |
| 20260509170142 | 82 | 229 | 3.0 | 7.0 | 0.00 | 0.00 | 0.00 | 77 | 1010.0 |
| 20260509165223 | 81 | 259 | 3.0 | 8.0 | 0.00 | 0.00 | 0.00 | 77 | 1010.1 |
| 20260509164150 | 80 | 249 | 3.0 | 9.0 | 0.00 | 0.00 | 0.00 | 79 | 1010.1 |
| 20260509163126 | 81 | 207 | 4.0 | 8.0 | 0.00 | 0.00 | 0.00 | 78 | 1010.0 |
| 20260509161200 | 79 | 223 | 1.0 | 4.0 | 0.00 | 0.00 | 0.00 | 81 | 1009.9 |
| 20260509160153 | 78 | 184 | 1.0 | 5.0 | 0.00 | 0.00 | 0.00 | 85 | 1009.9 |
| 20260509155218 | 77 | 146 | 2.0 | 6.0 | 0.00 | 0.00 | 0.00 | 87 | 1010.0 |
| 20260509154132 | 77 | 222 | 3.0 | 6.0 | 0.00 | 0.00 | 0.00 | 87 | 1009.8 |
| 20260509153212 | 76 | 232 | 3.0 | 6.0 | 0.00 | 0.00 | 0.00 | 91 | 1009.9 |
| 20260509152132 | 74 | 203 | 2.0 | 6.0 | 0.00 | 0.00 | 0.00 | 93 | 1009.9 |
| 20260509151211 | 74 | 188 | 1.0 | 5.0 | 0.00 | 0.00 | 0.00 | 95 | 1009.9 |
| 20260509150207 | 74 | 250 | 1.0 | 2.0 | 0.00 | 0.00 | 0.00 | 95 | 1010.1 |
| 20260509145137 | 74 | 250 | 0.0 | 3.0 | 0.00 | 0.00 | 0.00 | 95 | 1010.2 |
| 20260509144158 | 73 | 250 | 0.0 | 2.0 | 0.00 | 0.00 | 0.00 | 95 | 1010.3 |
| 20260509143218 | 73 | 250 | 1.0 | 2.0 | 0.00 | 0.00 | 0.00 | 94 | 1010.4 |
| 20260509142156 | 73 | 250 | 1.0 | 5.0 | 0.00 | 0.00 | 0.00 | 94 | 1010.4 |
| 20260509141214 | 73 | 241 | 2.0 | 4.0 | 0.00 | 0.00 | 0.00 | 94 | 1010.4 |
| 20260509140918 | 73 | 192 | 1.0 | 5.0 | 0.00 | 0.00 | 0.00 | 94 | 1010.3 |
| 20260509135159 | 73 | 195 | 2.0 | 5.0 | 0.00 | 0.00 | 0.00 | 94 | 1010.2 |
| 20260509134229 | 73 | 213 | 1.0 | 4.0 | 0.00 | 0.00 | 0.00 | 95 | 1010.2 |
| 20260509133143 | 73 | 215 | 1.0 | 4.0 | 0.00 | 0.00 | 0.00 | 96 | 1010.1 |
| 20260509132212 | 72 | 215 | 2.0 | 4.0 | 0.00 | 0.00 | 0.00 | 96 | 1010.1 |
| 20260509131151 | 72 | 217 | 2.0 | 5.0 | 0.00 | 0.00 | 0.00 | 96 | 1010.2 |
| 20260509130154 | 72 | 167 | 2.0 | 4.0 | 0.00 | 0.00 | 0.00 | 97 | 1010.2 |
| 20260509125232 | 72 | 155 | 2.0 | 5.0 | 0.00 | 0.00 | 0.00 | 97 | 1010.1 |
| 20260509124133 | 72 | 229 | 1.0 | 5.0 | 0.00 | 0.00 | 0.00 | 97 | 1010.1 |
| 20260509123156 | 71 | 246 | 1.0 | 4.0 | 0.00 | 0.00 | 0.00 | 97 | 1010.0 |
| 20260509122204 | 71 | 210 | 2.0 | 3.0 | 0.00 | 0.00 | 0.00 | 97 | 1009.9 |
| 20260509121143 | 71 | 246 | 3.0 | 6.0 | 0.00 | 0.00 | 0.00 | 97 | 1009.6 |
| 20260509120138 | 71 | 197 | 0.0 | 4.0 | 0.00 | 0.00 | 0.00 | 97 | 1009.5 |
| 20260509115218 | 71 | 186 | 1.0 | 5.0 | 0.00 | 0.00 | 0.00 | 97 | 1009.5 |
| 20260509114138 | 71 | 182 | 2.0 | 5.0 | 0.00 | 0.00 | 0.00 | 97 | 1009.5 |
| 20260509113219 | 71 | 171 | 2.0 | 8.0 | 0.00 | 0.00 | 0.00 | 97 | 1009.2 |
| 20260509112152 | 71 | 161 | 4.0 | 6.0 | 0.00 | 0.00 | 0.00 | 97 | 1009.1 |
| 20260509111230 | 71 | 244 | 2.0 | 9.0 | 0.00 | 0.00 | 0.00 | 97 | 1008.8 |
| 20260509110128 | 71 | 170 | 4.0 | 9.0 | 0.00 | 0.00 | 0.00 | 97 | 1008.2 |
| 20260509105205 | 71 | 211 | 3.0 | 6.0 | 0.00 | 0.00 | 0.00 | 97 | 1008.4 |
| 20260509104212 | 71 | 206 | 2.0 | 10.0 | 0.00 | 0.00 | 0.00 | 96 | 1008.4 |
| 20260509103145 | 71 | 199 | 4.0 | 9.0 | 0.00 | 0.00 | 0.00 | 97 | 1008.4 |
| 20260509102214 | 71 | 232 | 3.0 | 7.0 | 0.00 | 0.00 | 0.00 | 97 | 1008.7 |
| 20260509101148 | 71 | 166 | 3.0 | 6.0 | 0.00 | 0.00 | 0.00 | 97 | 1008.8 |
| 20260509095206 | 70 | 202 | 3.0 | 7.0 | 0.00 | 0.00 | 0.00 | 96 | 1009.1 |
| 20260509092149 | 70 | 180 | 2.0 | 6.0 | 0.00 | 0.00 | 0.00 | 96 | 1009.2 |
| 20260509091123 | 70 | 180 | 2.0 | 4.0 | 0.00 | 0.00 | 0.00 | 95 | 1009.0 |
| 20260509090204 | 70 | 185 | 2.0 | 5.0 | 0.00 | 0.00 | 0.00 | 95 | 1008.9 |
| 20260509085212 | 70 | 217 | 3.0 | 7.0 | 0.00 | 0.00 | 0.00 | 95 | 1008.9 |
| 20260509084139 | 71 | 151 | 3.0 | 6.0 | 0.00 | 0.00 | 0.00 | 94 | 1009.1 |
| 20260509083219 | 71 | 208 | 2.0 | 5.0 | 0.00 | 0.00 | 0.00 | 94 | 1009.4 |
| 20260509082222 | 71 | 190 | 3.0 | 6.0 | 0.00 | 0.00 | 0.00 | 94 | 1009.6 |
| 20260509081155 | 71 | 179 | 3.0 | 6.0 | 0.00 | 0.00 | 0.00 | 93 | 1009.8 |
| 20260509080904 | 71 | 175 | 2.0 | 5.0 | 0.00 | 0.00 | 0.00 | 93 | 1009.8 |
| 20260509080220 | 71 | 355 | 1.0 | 3.0 | 0.00 | 0.00 | 0.00 | 93 | 1009.8 |
| 20260509075152 | 71 | 360 | 0.0 | 1.0 | 0.00 | 0.00 | 0.00 | 93 | 1010.2 |
| 20260509074202 | 71 | 360 | 0.0 | 2.0 | 0.00 | 0.00 | 0.00 | 93 | 1010.4 |
| 20260509073208 | 71 | 360 | 1.0 | 2.0 | 0.00 | 0.00 | 0.00 | 93 | 1010.1 |
| 20260509072145 | 71 | 360 | 0.0 | 2.0 | 0.00 | 0.00 | 0.00 | 93 | 1010.2 |
| 20260509071124 | 71 | 360 | 0.0 | 3.0 | 0.00 | 0.00 | 0.00 | 92 | 1010.2 |
| 20260509070146 | 71 | 42 | 1.0 | 5.0 | 0.00 | 0.00 | 0.00 | 92 | 1010.1 |
| 20260509065142 | 71 | 355 | 1.0 | 5.0 | 0.00 | 0.00 | 0.00 | 92 | 1010.0 |
| 20260509064131 | 71 | 355 | 2.0 | 4.0 | 0.00 | 0.00 | 0.00 | 91 | 1009.3 |
| 20260509063139 | 71 | 53 | 1.0 | 3.0 | 0.00 | 0.00 | 0.00 | 91 | 1010.1 |
| 20260509062127 | 72 | 58 | 2.0 | 7.0 | 0.00 | 0.00 | 0.00 | 90 | 1010.0 |
| 20260509061204 | 72 | 145 | 3.0 | 6.0 | 0.00 | 0.00 | 0.00 | 89 | 1010.1 |
| 20260509060132 | 72 | 126 | 1.0 | 3.0 | 0.00 | 0.00 | 0.00 | 88 | 1010.7 |
| 20260509055138 | 72 | 81 | 0.0 | 2.0 | 0.00 | 0.00 | 0.00 | 88 | 1010.8 |
| 20260509054126 | 72 | 81 | 0.0 | 1.0 | 0.00 | 0.00 | 0.00 | 88 | 1011.0 |
| 20260509053124 | 72 | 81 | 0.0 | 2.0 | 0.00 | 0.00 | 0.00 | 88 | 1011.1 |
| 20260509052153 | 72 | 169 | 0.0 | 3.0 | 0.00 | 0.00 | 0.00 | 88 | 1010.8 |
| 20260509051148 | 72 | 326 | 1.0 | 3.0 | 0.00 | 0.00 | 0.00 | 88 | 1010.8 |
| 20260509050912 | 73 | 325 | 1.0 | 2.0 | 0.00 | 0.00 | 0.00 | 88 | 1010.7 |
| 20260509050130 | 73 | 324 | 1.0 | 2.0 | 0.00 | 0.00 | 0.00 | 88 | 1010.6 |
| 20260509045222 | 73 | 227 | 1.0 | 4.0 | 0.00 | 0.00 | 0.00 | 87 | 1010.4 |
| 20260509044206 | 73 | 355 | 1.0 | 5.0 | 0.00 | 0.00 | 0.00 | 87 | 1010.1 |
| 20260509043238 | 73 | 143 | 1.0 | 4.0 | 0.00 | 0.00 | 0.00 | 87 | 1010.2 |
| 20260509042147 | 73 | 144 | 1.0 | 2.0 | 0.00 | 0.00 | 0.00 | 86 | 1010.1 |
| 20260509041150 | 73 | 121 | 1.0 | 2.0 | 0.00 | 0.00 | 0.00 | 86 | 1010.0 |
| 20260509035149 | 73 | 179 | 1.0 | 4.0 | 0.00 | 0.00 | 0.00 | 86 | 1009.6 |
| 20260509034211 | 73 | 170 | 1.0 | 3.0 | 0.00 | 0.00 | 0.00 | 85 | 1009.8 |
| 20260509033207 | 73 | 175 | 1.0 | 4.0 | 0.00 | 0.00 | 0.00 | 85 | 1009.9 |
| 20260509032239 | 73 | 158 | 1.0 | 5.0 | 0.00 | 0.00 | 0.00 | 84 | 1009.8 |
| 20260509031150 | 73 | 120 | 0.0 | 4.0 | 0.00 | 0.00 | 0.00 | 84 | 1009.6 |
| 20260509030230 | 74 | 185 | 1.0 | 6.0 | 0.00 | 0.00 | 0.00 | 83 | 1009.6 |
| 20260509025136 | 74 | 119 | 2.0 | 5.0 | 0.00 | 0.00 | 0.00 | 83 | 1009.2 |
| 20260509024201 | 74 | 148 | 1.0 | 4.0 | 0.00 | 0.00 | 0.00 | 82 | 1009.1 |
| 20260509023138 | 74 | 115 | 0.0 | 2.0 | 0.00 | 0.00 | 0.00 | 82 | 1009.0 |
| 20260509022148 | 74 | 115 | 0.0 | 3.0 | 0.00 | 0.00 | 0.00 | 82 | 1008.9 |
| 20260509021214 | 74 | 163 | 0.0 | 0.0 | 0.00 | 0.00 | 0.00 | 81 | 1008.7 |
| 20260509020930 | 74 | 165 | 0.0 | 0.0 | 0.00 | 0.00 | 0.00 | 81 | 1008.7 |
| 20260509020229 | 74 | 162 | 0.0 | 0.0 | 0.00 | 0.00 | 0.00 | 81 | 1008.8 |
| 20260509015219 | 74 | 204 | 0.0 | 4.0 | 0.00 | 0.00 | 0.00 | 80 | 1008.6 |
| 20260509014138 | 75 | 96 | 0.0 | 3.0 | 0.00 | 0.00 | 0.00 | 80 | 1008.4 |
| 20260509013217 | 75 | 67 | 0.0 | 3.0 | 0.00 | 0.00 | 0.00 | 79 | 1008.3 |
| 20260509011149 | 75 | 163 | 1.0 | 7.0 | 0.00 | 0.00 | 0.00 | 78 | 1008.1 |
| 20260509010220 | 75 | 121 | 2.0 | 7.0 | 0.00 | 0.00 | 0.00 | 77 | 1008.0 |
| 20260509005137 | 76 | 171 | 1.0 | 7.0 | 0.00 | 0.00 | 0.00 | 77 | 1008.0 |
| 20260509004218 | 76 | 192 | 2.0 | 6.0 | 0.00 | 0.00 | 0.00 | 76 | 1008.1 |
| 20260509003158 | 76 | 144 | 2.0 | 4.0 | 0.00 | 0.00 | 0.00 | 75 | 1008.0 |